sensor_id;sensor_type;location;lat;lon;timestamp;P1;durP1;ratioP1;P2;durP2;ratioP2
7485;SDS011;3784;54.098;9.998;2023-08-12T00:01:51;4.27;;;2.83;;
7485;SDS011;3784;54.098;9.998;2023-08-12T00:04:17;3.80;;;3.07;;
7485;SDS011;3784;54.098;9.998;2023-08-12T00:06:43;3.80;;;2.70;;
7485;SDS011;3784;54.098;9.998;2023-08-12T00:09:10;5.23;;;2.70;;
7485;SDS011;3784;54.098;9.998;2023-08-12T00:11:38;7.30;;;2.80;;
7485;SDS011;3784;54.098;9.998;2023-08-12T00:14:04;3.13;;;2.70;;
7485;SDS011;3784;54.098;9.998;2023-08-12T00:16:31;4.20;;;2.90;;
7485;SDS011;3784;54.098;9.998;2023-08-12T00:18:58;4.20;;;2.60;;
7485;SDS011;3784;54.098;9.998;2023-08-12T00:21:25;4.33;;;2.90;;
7485;SDS011;3784;54.098;9.998;2023-08-12T00:23:51;8.20;;;3.10;;
7485;SDS011;3784;54.098;9.998;2023-08-12T00:26:18;5.07;;;3.00;;
7485;SDS011;3784;54.098;9.998;2023-08-12T00:28:44;5.47;;;2.73;;
7485;SDS011;3784;54.098;9.998;2023-08-12T00:31:10;5.73;;;2.80;;
7485;SDS011;3784;54.098;9.998;2023-08-12T00:33:37;3.20;;;2.90;;
7485;SDS011;3784;54.098;9.998;2023-08-12T00:36:03;4.97;;;2.90;;
7485;SDS011;3784;54.098;9.998;2023-08-12T00:38:30;3.23;;;2.90;;
7485;SDS011;3784;54.098;9.998;2023-08-12T00:40:56;4.60;;;2.53;;
7485;SDS011;3784;54.098;9.998;2023-08-12T00:43:24;4.70;;;2.90;;
7485;SDS011;3784;54.098;9.998;2023-08-12T00:45:50;5.47;;;3.10;;
7485;SDS011;3784;54.098;9.998;2023-08-12T00:48:17;8.90;;;2.53;;
7485;SDS011;3784;54.098;9.998;2023-08-12T00:50:44;4.27;;;2.80;;
7485;SDS011;3784;54.098;9.998;2023-08-12T00:53:11;3.13;;;2.83;;
7485;SDS011;3784;54.098;9.998;2023-08-12T00:55:38;5.83;;;2.93;;
7485;SDS011;3784;54.098;9.998;2023-08-12T00:58:04;2.87;;;2.60;;
7485;SDS011;3784;54.098;9.998;2023-08-12T01:00:31;3.47;;;2.70;;
7485;SDS011;3784;54.098;9.998;2023-08-12T01:02:58;4.50;;;2.83;;
7485;SDS011;3784;54.098;9.998;2023-08-12T01:05:26;4.43;;;2.90;;
7485;SDS011;3784;54.098;9.998;2023-08-12T01:07:53;6.13;;;3.00;;
7485;SDS011;3784;54.098;9.998;2023-08-12T01:10:20;4.20;;;2.87;;
7485;SDS011;3784;54.098;9.998;2023-08-12T01:12:52;4.70;;;3.10;;
7485;SDS011;3784;54.098;9.998;2023-08-12T01:15:21;3.93;;;2.90;;
7485;SDS011;3784;54.098;9.998;2023-08-12T01:17:48;5.53;;;3.17;;
7485;SDS011;3784;54.098;9.998;2023-08-12T01:20:21;7.37;;;3.07;;
7485;SDS011;3784;54.098;9.998;2023-08-12T01:22:52;3.97;;;3.03;;
7485;SDS011;3784;54.098;9.998;2023-08-12T01:25:24;4.67;;;3.10;;
7485;SDS011;3784;54.098;9.998;2023-08-12T01:27:51;6.30;;;3.37;;
7485;SDS011;3784;54.098;9.998;2023-08-12T01:30:18;4.03;;;3.13;;
7485;SDS011;3784;54.098;9.998;2023-08-12T01:35:45;3.37;;;2.70;;
7485;SDS011;3784;54.098;9.998;2023-08-12T01:38:13;3.27;;;2.97;;
7485;SDS011;3784;54.098;9.998;2023-08-12T01:40:40;6.20;;;3.17;;
7485;SDS011;3784;54.098;9.998;2023-08-12T01:43:07;3.90;;;3.20;;
7485;SDS011;3784;54.098;9.998;2023-08-12T01:45:34;3.80;;;3.00;;
7485;SDS011;3784;54.098;9.998;2023-08-12T01:48:01;4.50;;;2.87;;
7485;SDS011;3784;54.098;9.998;2023-08-12T01:50:29;4.27;;;2.73;;
7485;SDS011;3784;54.098;9.998;2023-08-12T01:52:55;4.33;;;3.17;;
7485;SDS011;3784;54.098;9.998;2023-08-12T01:55:21;4.87;;;3.03;;
7485;SDS011;3784;54.098;9.998;2023-08-12T01:57:48;4.97;;;3.17;;
7485;SDS011;3784;54.098;9.998;2023-08-12T02:00:15;3.77;;;3.20;;
7485;SDS011;3784;54.098;9.998;2023-08-12T02:02:41;7.70;;;3.70;;
7485;SDS011;3784;54.098;9.998;2023-08-12T02:05:08;5.60;;;3.20;;
7485;SDS011;3784;54.098;9.998;2023-08-12T02:07:34;3.80;;;2.80;;
7485;SDS011;3784;54.098;9.998;2023-08-12T02:10:01;4.00;;;3.27;;
7485;SDS011;3784;54.098;9.998;2023-08-12T02:12:27;4.67;;;3.20;;
7485;SDS011;3784;54.098;9.998;2023-08-12T02:14:53;3.70;;;2.90;;
7485;SDS011;3784;54.098;9.998;2023-08-12T02:17:20;5.73;;;3.20;;
7485;SDS011;3784;54.098;9.998;2023-08-12T02:19:46;4.33;;;3.07;;
7485;SDS011;3784;54.098;9.998;2023-08-12T02:22:12;3.17;;;2.87;;
7485;SDS011;3784;54.098;9.998;2023-08-12T02:24:39;4.87;;;2.90;;
7485;SDS011;3784;54.098;9.998;2023-08-12T02:27:05;4.60;;;3.10;;
7485;SDS011;3784;54.098;9.998;2023-08-12T02:29:32;2.93;;;2.73;;
7485;SDS011;3784;54.098;9.998;2023-08-12T02:31:59;4.67;;;3.00;;
7485;SDS011;3784;54.098;9.998;2023-08-12T02:34:25;4.60;;;2.83;;
7485;SDS011;3784;54.098;9.998;2023-08-12T02:36:52;3.80;;;2.70;;
7485;SDS011;3784;54.098;9.998;2023-08-12T02:39:18;4.97;;;2.90;;
7485;SDS011;3784;54.098;9.998;2023-08-12T02:41:45;5.33;;;2.90;;
7485;SDS011;3784;54.098;9.998;2023-08-12T02:44:11;4.03;;;3.00;;
7485;SDS011;3784;54.098;9.998;2023-08-12T02:46:38;4.60;;;3.17;;
7485;SDS011;3784;54.098;9.998;2023-08-12T02:49:04;6.07;;;3.00;;
7485;SDS011;3784;54.098;9.998;2023-08-12T02:51:30;3.97;;;3.00;;
7485;SDS011;3784;54.098;9.998;2023-08-12T02:53:57;3.27;;;2.90;;
7485;SDS011;3784;54.098;9.998;2023-08-12T02:56:23;5.47;;;2.70;;
7485;SDS011;3784;54.098;9.998;2023-08-12T02:58:49;6.03;;;3.20;;
7485;SDS011;3784;54.098;9.998;2023-08-12T03:01:16;4.13;;;3.27;;
7485;SDS011;3784;54.098;9.998;2023-08-12T03:03:42;3.60;;;3.13;;
7485;SDS011;3784;54.098;9.998;2023-08-12T03:06:09;6.60;;;3.27;;
7485;SDS011;3784;54.098;9.998;2023-08-12T03:08:35;5.50;;;2.93;;
7485;SDS011;3784;54.098;9.998;2023-08-12T03:11:02;4.77;;;3.60;;
7485;SDS011;3784;54.098;9.998;2023-08-12T03:13:28;6.57;;;3.30;;
7485;SDS011;3784;54.098;9.998;2023-08-12T03:15:55;5.93;;;3.00;;
7485;SDS011;3784;54.098;9.998;2023-08-12T03:18:22;4.90;;;3.00;;
7485;SDS011;3784;54.098;9.998;2023-08-12T03:20:48;5.13;;;3.23;;
7485;SDS011;3784;54.098;9.998;2023-08-12T03:23:15;3.30;;;3.00;;
7485;SDS011;3784;54.098;9.998;2023-08-12T03:25:41;3.20;;;2.83;;
7485;SDS011;3784;54.098;9.998;2023-08-12T03:28:08;3.47;;;3.10;;
7485;SDS011;3784;54.098;9.998;2023-08-12T03:30:34;5.43;;;3.20;;
7485;SDS011;3784;54.098;9.998;2023-08-12T03:33:00;4.00;;;3.30;;
7485;SDS011;3784;54.098;9.998;2023-08-12T03:35:27;3.13;;;2.87;;
7485;SDS011;3784;54.098;9.998;2023-08-12T03:37:53;4.83;;;3.13;;
7485;SDS011;3784;54.098;9.998;2023-08-12T03:40:20;4.60;;;3.27;;
7485;SDS011;3784;54.098;9.998;2023-08-12T03:42:46;5.53;;;3.30;;
7485;SDS011;3784;54.098;9.998;2023-08-12T03:45:13;4.40;;;3.13;;
7485;SDS011;3784;54.098;9.998;2023-08-12T03:47:39;4.93;;;4.03;;
7485;SDS011;3784;54.098;9.998;2023-08-12T03:50:06;4.20;;;3.13;;
7485;SDS011;3784;54.098;9.998;2023-08-12T03:52:32;4.97;;;3.37;;
7485;SDS011;3784;54.098;9.998;2023-08-12T03:54:59;5.37;;;3.67;;
7485;SDS011;3784;54.098;9.998;2023-08-12T03:57:25;4.47;;;3.80;;
7485;SDS011;3784;54.098;9.998;2023-08-12T03:59:52;5.27;;;3.60;;
7485;SDS011;3784;54.098;9.998;2023-08-12T04:02:18;4.50;;;4.10;;
7485;SDS011;3784;54.098;9.998;2023-08-12T04:04:44;4.37;;;3.87;;
7485;SDS011;3784;54.098;9.998;2023-08-12T04:07:11;5.07;;;3.90;;
7485;SDS011;3784;54.098;9.998;2023-08-12T04:09:38;4.87;;;4.40;;
7485;SDS011;3784;54.098;9.998;2023-08-12T04:12:04;7.27;;;4.80;;
7485;SDS011;3784;54.098;9.998;2023-08-12T04:14:31;5.77;;;4.33;;
7485;SDS011;3784;54.098;9.998;2023-08-12T04:16:57;5.17;;;4.67;;
7485;SDS011;3784;54.098;9.998;2023-08-12T04:19:24;5.00;;;4.60;;
7485;SDS011;3784;54.098;9.998;2023-08-12T04:21:50;4.57;;;4.17;;
7485;SDS011;3784;54.098;9.998;2023-08-12T04:24:16;4.90;;;4.27;;
7485;SDS011;3784;54.098;9.998;2023-08-12T04:26:43;4.53;;;4.13;;
7485;SDS011;3784;54.098;9.998;2023-08-12T04:29:09;6.40;;;4.33;;
7485;SDS011;3784;54.098;9.998;2023-08-12T04:31:36;5.30;;;4.83;;
7485;SDS011;3784;54.098;9.998;2023-08-12T04:34:02;4.67;;;4.23;;
7485;SDS011;3784;54.098;9.998;2023-08-12T04:36:30;5.30;;;4.20;;
7485;SDS011;3784;54.098;9.998;2023-08-12T04:38:56;6.03;;;4.40;;
7485;SDS011;3784;54.098;9.998;2023-08-12T04:41:22;5.70;;;4.20;;
7485;SDS011;3784;54.098;9.998;2023-08-12T04:43:50;4.77;;;4.30;;
7485;SDS011;3784;54.098;9.998;2023-08-12T04:46:17;5.17;;;4.20;;
7485;SDS011;3784;54.098;9.998;2023-08-12T04:48:44;5.00;;;4.50;;
7485;SDS011;3784;54.098;9.998;2023-08-12T04:51:11;5.63;;;5.10;;
7485;SDS011;3784;54.098;9.998;2023-08-12T04:53:38;5.43;;;4.93;;
7485;SDS011;3784;54.098;9.998;2023-08-12T04:56:04;6.37;;;4.80;;
7485;SDS011;3784;54.098;9.998;2023-08-12T04:58:30;5.30;;;4.80;;
7485;SDS011;3784;54.098;9.998;2023-08-12T05:00:57;4.90;;;4.50;;
7485;SDS011;3784;54.098;9.998;2023-08-12T05:03:23;5.83;;;5.00;;
7485;SDS011;3784;54.098;9.998;2023-08-12T05:05:50;5.23;;;4.63;;
7485;SDS011;3784;54.098;9.998;2023-08-12T05:08:18;5.30;;;4.80;;
7485;SDS011;3784;54.098;9.998;2023-08-12T05:10:46;5.13;;;4.63;;
7485;SDS011;3784;54.098;9.998;2023-08-12T05:13:13;4.77;;;3.83;;
7485;SDS011;3784;54.098;9.998;2023-08-12T05:15:40;4.37;;;3.93;;
7485;SDS011;3784;54.098;9.998;2023-08-12T05:18:06;5.43;;;4.30;;
7485;SDS011;3784;54.098;9.998;2023-08-12T05:20:33;4.93;;;4.43;;
7485;SDS011;3784;54.098;9.998;2023-08-12T05:22:59;4.40;;;4.00;;
7485;SDS011;3784;54.098;9.998;2023-08-12T05:25:25;5.63;;;4.67;;
7485;SDS011;3784;54.098;9.998;2023-08-12T05:27:52;4.30;;;3.90;;
7485;SDS011;3784;54.098;9.998;2023-08-12T05:30:18;4.97;;;4.40;;
7485;SDS011;3784;54.098;9.998;2023-08-12T05:32:44;6.07;;;4.00;;
7485;SDS011;3784;54.098;9.998;2023-08-12T05:35:11;5.50;;;4.70;;
7485;SDS011;3784;54.098;9.998;2023-08-12T05:37:37;7.00;;;4.63;;
7485;SDS011;3784;54.098;9.998;2023-08-12T05:40:04;4.77;;;4.10;;
7485;SDS011;3784;54.098;9.998;2023-08-12T05:42:35;6.17;;;5.07;;
7485;SDS011;3784;54.098;9.998;2023-08-12T05:45:02;4.80;;;4.30;;
7485;SDS011;3784;54.098;9.998;2023-08-12T05:47:30;6.17;;;5.03;;
7485;SDS011;3784;54.098;9.998;2023-08-12T05:49:58;6.70;;;5.50;;
7485;SDS011;3784;54.098;9.998;2023-08-12T05:52:25;6.13;;;5.53;;
7485;SDS011;3784;54.098;9.998;2023-08-12T05:54:51;8.40;;;5.90;;
7485;SDS011;3784;54.098;9.998;2023-08-12T05:57:18;5.97;;;5.17;;
7485;SDS011;3784;54.098;9.998;2023-08-12T05:59:44;7.73;;;5.37;;
7485;SDS011;3784;54.098;9.998;2023-08-12T06:02:10;5.33;;;4.57;;
7485;SDS011;3784;54.098;9.998;2023-08-12T06:04:37;5.37;;;4.87;;
7485;SDS011;3784;54.098;9.998;2023-08-12T06:07:04;6.70;;;5.63;;
7485;SDS011;3784;54.098;9.998;2023-08-12T06:09:30;5.97;;;5.03;;
7485;SDS011;3784;54.098;9.998;2023-08-12T06:11:56;7.47;;;4.67;;
7485;SDS011;3784;54.098;9.998;2023-08-12T06:14:23;5.70;;;5.10;;
7485;SDS011;3784;54.098;9.998;2023-08-12T06:16:49;7.10;;;5.07;;
7485;SDS011;3784;54.098;9.998;2023-08-12T06:19:15;5.97;;;5.20;;
7485;SDS011;3784;54.098;9.998;2023-08-12T06:21:42;5.40;;;4.90;;
7485;SDS011;3784;54.098;9.998;2023-08-12T06:24:08;7.53;;;5.03;;
7485;SDS011;3784;54.098;9.998;2023-08-12T06:26:35;5.00;;;4.60;;
7485;SDS011;3784;54.098;9.998;2023-08-12T06:29:01;8.20;;;5.47;;
7485;SDS011;3784;54.098;9.998;2023-08-12T06:31:31;5.70;;;5.20;;
7485;SDS011;3784;54.098;9.998;2023-08-12T06:33:57;6.27;;;5.67;;
7485;SDS011;3784;54.098;9.998;2023-08-12T06:36:24;6.23;;;5.60;;
7485;SDS011;3784;54.098;9.998;2023-08-12T06:38:50;7.03;;;5.67;;
7485;SDS011;3784;54.098;9.998;2023-08-12T06:41:16;5.53;;;5.03;;
7485;SDS011;3784;54.098;9.998;2023-08-12T06:43:43;5.87;;;5.27;;
7485;SDS011;3784;54.098;9.998;2023-08-12T06:46:09;7.03;;;6.20;;
7485;SDS011;3784;54.098;9.998;2023-08-12T06:48:36;6.87;;;6.17;;
7485;SDS011;3784;54.098;9.998;2023-08-12T06:51:02;6.40;;;5.90;;
7485;SDS011;3784;54.098;9.998;2023-08-12T06:53:36;6.87;;;6.27;;
7485;SDS011;3784;54.098;9.998;2023-08-12T06:56:03;6.23;;;5.57;;
7485;SDS011;3784;54.098;9.998;2023-08-12T06:58:30;5.53;;;5.00;;
7485;SDS011;3784;54.098;9.998;2023-08-12T07:00:57;9.93;;;5.50;;
7485;SDS011;3784;54.098;9.998;2023-08-12T07:03:25;6.10;;;5.50;;
7485;SDS011;3784;54.098;9.998;2023-08-12T07:05:53;6.83;;;6.23;;
7485;SDS011;3784;54.098;9.998;2023-08-12T07:08:19;9.73;;;6.80;;
7485;SDS011;3784;54.098;9.998;2023-08-12T07:10:46;6.80;;;6.20;;
7485;SDS011;3784;54.098;9.998;2023-08-12T07:13:12;6.70;;;6.20;;
7485;SDS011;3784;54.098;9.998;2023-08-12T07:15:39;6.17;;;5.57;;
7485;SDS011;3784;54.098;9.998;2023-08-12T07:18:05;6.60;;;6.00;;
7485;SDS011;3784;54.098;9.998;2023-08-12T07:20:32;7.57;;;6.87;;
7485;SDS011;3784;54.098;9.998;2023-08-12T07:22:59;12.20;;;6.07;;
7485;SDS011;3784;54.098;9.998;2023-08-12T07:25:25;7.17;;;6.40;;
7485;SDS011;3784;54.098;9.998;2023-08-12T07:27:51;7.20;;;6.53;;
7485;SDS011;3784;54.098;9.998;2023-08-12T07:30:18;7.60;;;6.90;;
7485;SDS011;3784;54.098;9.998;2023-08-12T07:32:44;7.20;;;6.27;;
7485;SDS011;3784;54.098;9.998;2023-08-12T07:35:11;7.17;;;6.57;;
7485;SDS011;3784;54.098;9.998;2023-08-12T07:37:37;7.40;;;6.80;;
7485;SDS011;3784;54.098;9.998;2023-08-12T07:40:04;7.20;;;6.23;;
7485;SDS011;3784;54.098;9.998;2023-08-12T07:42:31;7.40;;;6.30;;
7485;SDS011;3784;54.098;9.998;2023-08-12T07:44:57;7.87;;;7.13;;
7485;SDS011;3784;54.098;9.998;2023-08-12T07:47:23;8.70;;;7.90;;
7485;SDS011;3784;54.098;9.998;2023-08-12T07:49:50;9.17;;;8.30;;
7485;SDS011;3784;54.098;9.998;2023-08-12T07:52:16;7.50;;;6.80;;
7485;SDS011;3784;54.098;9.998;2023-08-12T07:54:43;7.00;;;6.50;;
7485;SDS011;3784;54.098;9.998;2023-08-12T07:57:09;7.27;;;6.67;;
7485;SDS011;3784;54.098;9.998;2023-08-12T07:59:35;7.87;;;7.07;;
7485;SDS011;3784;54.098;9.998;2023-08-12T08:02:03;9.87;;;6.90;;
7485;SDS011;3784;54.098;9.998;2023-08-12T08:04:30;6.50;;;5.90;;
7485;SDS011;3784;54.098;9.998;2023-08-12T08:06:57;8.60;;;7.70;;
7485;SDS011;3784;54.098;9.998;2023-08-12T08:09:25;10.80;;;9.77;;
7485;SDS011;3784;54.098;9.998;2023-08-12T08:11:51;10.10;;;9.03;;
7485;SDS011;3784;54.098;9.998;2023-08-12T08:14:20;7.67;;;7.00;;
7485;SDS011;3784;54.098;9.998;2023-08-12T08:16:47;7.50;;;6.80;;
7485;SDS011;3784;54.098;9.998;2023-08-12T08:19:13;7.43;;;6.10;;
7485;SDS011;3784;54.098;9.998;2023-08-12T08:21:40;7.57;;;6.97;;
7485;SDS011;3784;54.098;9.998;2023-08-12T08:24:07;6.87;;;6.27;;
7485;SDS011;3784;54.098;9.998;2023-08-12T08:26:34;6.67;;;6.07;;
7485;SDS011;3784;54.098;9.998;2023-08-12T08:29:01;6.57;;;5.97;;
7485;SDS011;3784;54.098;9.998;2023-08-12T08:31:27;6.53;;;5.93;;
7485;SDS011;3784;54.098;9.998;2023-08-12T08:33:54;8.50;;;7.13;;
7485;SDS011;3784;54.098;9.998;2023-08-12T08:36:20;7.50;;;6.80;;
7485;SDS011;3784;54.098;9.998;2023-08-12T08:38:47;7.53;;;6.83;;
7485;SDS011;3784;54.098;9.998;2023-08-12T08:41:13;7.87;;;7.07;;
7485;SDS011;3784;54.098;9.998;2023-08-12T08:43:42;7.47;;;6.57;;
7485;SDS011;3784;54.098;9.998;2023-08-12T08:46:10;9.67;;;6.97;;
7485;SDS011;3784;54.098;9.998;2023-08-12T08:48:43;7.50;;;6.83;;
7485;SDS011;3784;54.098;9.998;2023-08-12T08:51:10;10.83;;;7.70;;
7485;SDS011;3784;54.098;9.998;2023-08-12T08:53:37;8.80;;;7.90;;
7485;SDS011;3784;54.098;9.998;2023-08-12T08:56:05;7.63;;;6.97;;
7485;SDS011;3784;54.098;9.998;2023-08-12T08:58:40;8.20;;;7.40;;
7485;SDS011;3784;54.098;9.998;2023-08-12T09:01:06;7.27;;;6.20;;
7485;SDS011;3784;54.098;9.998;2023-08-12T09:03:37;7.80;;;7.10;;
7485;SDS011;3784;54.098;9.998;2023-08-12T09:06:04;7.63;;;6.93;;
7485;SDS011;3784;54.098;9.998;2023-08-12T09:08:31;6.80;;;5.93;;
7485;SDS011;3784;54.098;9.998;2023-08-12T09:10:59;7.97;;;7.00;;
7485;SDS011;3784;54.098;9.998;2023-08-12T09:13:26;7.97;;;7.17;;
7485;SDS011;3784;54.098;9.998;2023-08-12T09:15:53;8.50;;;7.60;;
7485;SDS011;3784;54.098;9.998;2023-08-12T09:18:20;8.00;;;7.33;;
7485;SDS011;3784;54.098;9.998;2023-08-12T09:20:50;9.23;;;6.90;;
7485;SDS011;3784;54.098;9.998;2023-08-12T09:23:17;8.73;;;7.03;;
7485;SDS011;3784;54.098;9.998;2023-08-12T09:25:44;7.83;;;7.13;;
7485;SDS011;3784;54.098;9.998;2023-08-12T09:28:11;11.00;;;7.43;;
7485;SDS011;3784;54.098;9.998;2023-08-12T09:30:38;9.43;;;6.60;;
7485;SDS011;3784;54.098;9.998;2023-08-12T09:33:06;7.23;;;6.30;;
7485;SDS011;3784;54.098;9.998;2023-08-12T09:35:35;7.80;;;6.53;;
7485;SDS011;3784;54.098;9.998;2023-08-12T09:38:03;7.33;;;6.63;;
7485;SDS011;3784;54.098;9.998;2023-08-12T09:40:31;6.80;;;6.13;;
7485;SDS011;3784;54.098;9.998;2023-08-12T09:42:59;7.57;;;6.87;;
7485;SDS011;3784;54.098;9.998;2023-08-12T09:45:26;9.83;;;7.43;;
7485;SDS011;3784;54.098;9.998;2023-08-12T09:47:52;7.87;;;7.07;;
7485;SDS011;3784;54.098;9.998;2023-08-12T09:50:21;7.97;;;7.13;;
7485;SDS011;3784;54.098;9.998;2023-08-12T09:52:48;7.77;;;6.90;;
7485;SDS011;3784;54.098;9.998;2023-08-12T09:55:16;8.47;;;7.67;;
7485;SDS011;3784;54.098;9.998;2023-08-12T09:57:43;7.30;;;6.60;;
7485;SDS011;3784;54.098;9.998;2023-08-12T10:00:11;8.90;;;8.00;;
7485;SDS011;3784;54.098;9.998;2023-08-12T10:02:43;8.70;;;7.90;;
7485;SDS011;3784;54.098;9.998;2023-08-12T10:05:32;9.10;;;7.57;;
7485;SDS011;3784;54.098;9.998;2023-08-12T10:07:59;10.87;;;7.30;;
7485;SDS011;3784;54.098;9.998;2023-08-12T10:10:28;16.13;;;8.57;;
7485;SDS011;3784;54.098;9.998;2023-08-12T10:12:55;8.33;;;7.53;;
7485;SDS011;3784;54.098;9.998;2023-08-12T10:15:21;8.80;;;7.90;;
7485;SDS011;3784;54.098;9.998;2023-08-12T10:17:49;8.60;;;7.80;;
7485;SDS011;3784;54.098;9.998;2023-08-12T10:20:22;8.17;;;7.33;;
7485;SDS011;3784;54.098;9.998;2023-08-12T10:22:50;8.80;;;7.43;;
7485;SDS011;3784;54.098;9.998;2023-08-12T10:25:18;8.17;;;7.47;;
7485;SDS011;3784;54.098;9.998;2023-08-12T10:27:45;7.97;;;7.17;;
7485;SDS011;3784;54.098;9.998;2023-08-12T10:30:12;7.77;;;7.07;;
7485;SDS011;3784;54.098;9.998;2023-08-12T10:32:39;8.67;;;6.80;;
7485;SDS011;3784;54.098;9.998;2023-08-12T10:35:06;7.30;;;6.70;;
7485;SDS011;3784;54.098;9.998;2023-08-12T10:37:33;8.07;;;7.07;;
7485;SDS011;3784;54.098;9.998;2023-08-12T10:40:03;9.07;;;6.53;;
7485;SDS011;3784;54.098;9.998;2023-08-12T10:42:45;12.90;;;6.17;;
7485;SDS011;3784;54.098;9.998;2023-08-12T10:45:16;11.53;;;6.60;;
7485;SDS011;3784;54.098;9.998;2023-08-12T10:47:47;6.07;;;5.47;;
7485;SDS011;3784;54.098;9.998;2023-08-12T10:52:45;5.60;;;5.00;;
7485;SDS011;3784;54.098;9.998;2023-08-12T10:55:19;6.83;;;5.43;;
7485;SDS011;3784;54.098;9.998;2023-08-12T10:57:54;8.27;;;5.87;;
7485;SDS011;3784;54.098;9.998;2023-08-12T11:00:23;7.20;;;5.10;;
7485;SDS011;3784;54.098;9.998;2023-08-12T11:02:51;5.40;;;4.90;;
7485;SDS011;3784;54.098;9.998;2023-08-12T11:05:19;7.17;;;5.43;;
7485;SDS011;3784;54.098;9.998;2023-08-12T11:07:47;6.17;;;5.53;;
7485;SDS011;3784;54.098;9.998;2023-08-12T11:10:18;8.03;;;6.10;;
7485;SDS011;3784;54.098;9.998;2023-08-12T11:18:01;6.97;;;6.37;;
7485;SDS011;3784;54.098;9.998;2023-08-12T11:20:30;6.33;;;5.73;;
7485;SDS011;3784;54.098;9.998;2023-08-12T11:22:57;7.07;;;6.30;;
7485;SDS011;3784;54.098;9.998;2023-08-12T11:25:27;7.40;;;6.47;;
7485;SDS011;3784;54.098;9.998;2023-08-12T11:27:55;6.73;;;5.93;;
7485;SDS011;3784;54.098;9.998;2023-08-12T11:30:22;7.57;;;6.87;;
7485;SDS011;3784;54.098;9.998;2023-08-12T11:32:49;9.03;;;7.97;;
7485;SDS011;3784;54.098;9.998;2023-08-12T11:35:17;9.53;;;8.53;;
7485;SDS011;3784;54.098;9.998;2023-08-12T11:37:45;12.97;;;9.27;;
7485;SDS011;3784;54.098;9.998;2023-08-12T11:40:22;9.67;;;8.50;;
7485;SDS011;3784;54.098;9.998;2023-08-12T11:42:50;10.60;;;9.60;;
7485;SDS011;3784;54.098;9.998;2023-08-12T11:45:18;10.90;;;9.90;;
7485;SDS011;3784;54.098;9.998;2023-08-12T11:47:45;12.23;;;11.10;;
7485;SDS011;3784;54.098;9.998;2023-08-12T11:50:19;15.57;;;12.07;;
7485;SDS011;3784;54.098;9.998;2023-08-12T11:52:47;18.23;;;13.83;;
7485;SDS011;3784;54.098;9.998;2023-08-12T11:55:14;15.93;;;14.43;;
7485;SDS011;3784;54.098;9.998;2023-08-12T11:57:40;17.17;;;12.93;;
7485;SDS011;3784;54.098;9.998;2023-08-12T12:00:08;14.30;;;12.80;;
7485;SDS011;3784;54.098;9.998;2023-08-12T12:02:51;34.23;;;14.33;;
7485;SDS011;3784;54.098;9.998;2023-08-12T12:05:20;13.37;;;11.80;;
7485;SDS011;3784;54.098;9.998;2023-08-12T12:07:50;11.37;;;10.03;;
7485;SDS011;3784;54.098;9.998;2023-08-12T12:10:21;11.07;;;8.87;;
7485;SDS011;3784;54.098;9.998;2023-08-12T12:12:59;9.10;;;8.00;;
7485;SDS011;3784;54.098;9.998;2023-08-12T12:15:27;11.40;;;8.87;;
7485;SDS011;3784;54.098;9.998;2023-08-12T12:17:53;7.60;;;6.90;;
7485;SDS011;3784;54.098;9.998;2023-08-12T12:20:20;7.13;;;6.40;;
7485;SDS011;3784;54.098;9.998;2023-08-12T12:22:47;8.03;;;7.23;;
7485;SDS011;3784;54.098;9.998;2023-08-12T12:25:15;8.33;;;7.43;;
7485;SDS011;3784;54.098;9.998;2023-08-12T12:27:43;9.47;;;7.90;;
7485;SDS011;3784;54.098;9.998;2023-08-12T12:30:12;7.43;;;6.73;;
7485;SDS011;3784;54.098;9.998;2023-08-12T12:32:39;6.80;;;6.20;;
7485;SDS011;3784;54.098;9.998;2023-08-12T12:35:07;6.93;;;6.33;;
7485;SDS011;3784;54.098;9.998;2023-08-12T12:37:34;7.27;;;6.40;;
7485;SDS011;3784;54.098;9.998;2023-08-12T12:40:02;7.67;;;6.33;;
7485;SDS011;3784;54.098;9.998;2023-08-12T12:42:29;7.40;;;6.43;;
7485;SDS011;3784;54.098;9.998;2023-08-12T12:44:56;8.77;;;6.80;;
7485;SDS011;3784;54.098;9.998;2023-08-12T12:47:22;7.83;;;7.03;;
7485;SDS011;3784;54.098;9.998;2023-08-12T12:49:49;9.47;;;7.97;;
7485;SDS011;3784;54.098;9.998;2023-08-12T12:52:15;7.83;;;6.83;;
7485;SDS011;3784;54.098;9.998;2023-08-12T12:54:42;7.10;;;6.50;;
7485;SDS011;3784;54.098;9.998;2023-08-12T12:57:08;7.10;;;6.40;;
7485;SDS011;3784;54.098;9.998;2023-08-12T12:59:35;6.90;;;6.30;;
7485;SDS011;3784;54.098;9.998;2023-08-12T13:02:01;7.43;;;6.57;;
7485;SDS011;3784;54.098;9.998;2023-08-12T13:04:28;7.80;;;7.10;;
7485;SDS011;3784;54.098;9.998;2023-08-12T13:06:54;8.07;;;7.27;;
7485;SDS011;3784;54.098;9.998;2023-08-12T13:09:21;7.17;;;6.57;;
7485;SDS011;3784;54.098;9.998;2023-08-12T13:11:47;7.33;;;6.73;;
7485;SDS011;3784;54.098;9.998;2023-08-12T13:14:14;10.80;;;6.20;;
7485;SDS011;3784;54.098;9.998;2023-08-12T13:16:43;6.93;;;6.30;;
7485;SDS011;3784;54.098;9.998;2023-08-12T13:19:09;6.10;;;5.60;;
7485;SDS011;3784;54.098;9.998;2023-08-12T13:21:36;7.13;;;6.53;;
7485;SDS011;3784;54.098;9.998;2023-08-12T13:24:02;7.40;;;6.70;;
7485;SDS011;3784;54.098;9.998;2023-08-12T13:26:30;7.23;;;6.27;;
7485;SDS011;3784;54.098;9.998;2023-08-12T13:28:56;6.07;;;5.57;;
7485;SDS011;3784;54.098;9.998;2023-08-12T13:31:22;7.53;;;6.67;;
7485;SDS011;3784;54.098;9.998;2023-08-12T13:33:50;7.27;;;6.37;;
7485;SDS011;3784;54.098;9.998;2023-08-12T13:36:16;7.57;;;6.97;;
7485;SDS011;3784;54.098;9.998;2023-08-12T13:38:42;7.70;;;7.00;;
7485;SDS011;3784;54.098;9.998;2023-08-12T13:41:09;8.30;;;7.63;;
7485;SDS011;3784;54.098;9.998;2023-08-12T13:43:35;6.97;;;6.27;;
7485;SDS011;3784;54.098;9.998;2023-08-12T13:46:01;7.40;;;6.80;;
7485;SDS011;3784;54.098;9.998;2023-08-12T13:48:28;7.03;;;6.40;;
7485;SDS011;3784;54.098;9.998;2023-08-12T13:50:56;6.80;;;6.30;;
7485;SDS011;3784;54.098;9.998;2023-08-12T13:53:26;7.80;;;7.10;;
7485;SDS011;3784;54.098;9.998;2023-08-12T13:55:52;8.57;;;7.73;;
7485;SDS011;3784;54.098;9.998;2023-08-12T13:58:19;10.40;;;8.50;;
7485;SDS011;3784;54.098;9.998;2023-08-12T14:00:45;7.70;;;7.07;;
7485;SDS011;3784;54.098;9.998;2023-08-12T14:03:12;8.93;;;8.13;;
7485;SDS011;3784;54.098;9.998;2023-08-12T14:05:39;8.97;;;8.13;;
7485;SDS011;3784;54.098;9.998;2023-08-12T14:08:06;9.03;;;8.23;;
7485;SDS011;3784;54.098;9.998;2023-08-12T14:10:32;9.87;;;8.87;;
7485;SDS011;3784;54.098;9.998;2023-08-12T14:12:58;9.33;;;8.53;;
7485;SDS011;3784;54.098;9.998;2023-08-12T14:15:25;9.73;;;8.83;;
7485;SDS011;3784;54.098;9.998;2023-08-12T14:17:51;8.87;;;8.07;;
7485;SDS011;3784;54.098;9.998;2023-08-12T14:20:17;7.70;;;7.10;;
7485;SDS011;3784;54.098;9.998;2023-08-12T14:22:44;8.80;;;8.03;;
7485;SDS011;3784;54.098;9.998;2023-08-12T14:25:10;7.27;;;6.57;;
7485;SDS011;3784;54.098;9.998;2023-08-12T14:27:37;8.53;;;7.80;;
7485;SDS011;3784;54.098;9.998;2023-08-12T14:30:04;7.87;;;7.10;;
7485;SDS011;3784;54.098;9.998;2023-08-12T14:32:31;7.77;;;6.97;;
7485;SDS011;3784;54.098;9.998;2023-08-12T14:34:57;8.73;;;8.00;;
7485;SDS011;3784;54.098;9.998;2023-08-12T14:37:24;8.50;;;7.73;;
7485;SDS011;3784;54.098;9.998;2023-08-12T14:39:50;8.97;;;8.00;;
7485;SDS011;3784;54.098;9.998;2023-08-12T14:42:16;8.77;;;7.97;;
7485;SDS011;3784;54.098;9.998;2023-08-12T14:44:43;7.97;;;7.37;;
7485;SDS011;3784;54.098;9.998;2023-08-12T14:47:09;8.53;;;7.77;;
7485;SDS011;3784;54.098;9.998;2023-08-12T14:49:36;7.70;;;7.00;;
7485;SDS011;3784;54.098;9.998;2023-08-12T14:52:03;7.20;;;6.60;;
7485;SDS011;3784;54.098;9.998;2023-08-12T14:54:30;8.40;;;7.60;;
7485;SDS011;3784;54.098;9.998;2023-08-12T14:56:56;7.73;;;7.10;;
7485;SDS011;3784;54.098;9.998;2023-08-12T14:59:22;7.60;;;6.90;;
7485;SDS011;3784;54.098;9.998;2023-08-12T15:01:49;8.00;;;7.30;;
7485;SDS011;3784;54.098;9.998;2023-08-12T15:04:16;6.93;;;6.33;;
7485;SDS011;3784;54.098;9.998;2023-08-12T15:06:42;6.07;;;5.60;;
7485;SDS011;3784;54.098;9.998;2023-08-12T15:09:09;8.60;;;7.90;;
7485;SDS011;3784;54.098;9.998;2023-08-12T15:11:35;8.57;;;7.87;;
7485;SDS011;3784;54.098;9.998;2023-08-12T15:14:02;8.00;;;7.30;;
7485;SDS011;3784;54.098;9.998;2023-08-12T15:16:28;9.27;;;8.37;;
7485;SDS011;3784;54.098;9.998;2023-08-12T15:18:55;9.83;;;9.00;;
7485;SDS011;3784;54.098;9.998;2023-08-12T15:21:21;9.50;;;8.70;;
7485;SDS011;3784;54.098;9.998;2023-08-12T15:23:48;9.37;;;8.40;;
7485;SDS011;3784;54.098;9.998;2023-08-12T15:26:14;9.63;;;8.77;;